sensor_id;sensor_type;location;lat;lon;timestamp;temperature;humidity
23721;DHT22;42950;52.134;5.578;2024-01-27T00:01:35;3.90;99.90
23721;DHT22;42950;52.134;5.578;2024-01-27T00:04:01;3.90;99.90
23721;DHT22;42950;52.134;5.578;2024-01-27T00:06:27;3.90;99.90
23721;DHT22;42950;52.134;5.578;2024-01-27T00:08:53;3.90;99.90
23721;DHT22;42950;52.134;5.578;2024-01-27T00:11:18;3.90;99.90
23721;DHT22;42950;52.134;5.578;2024-01-27T00:13:45;3.80;99.90
23721;DHT22;42950;52.134;5.578;2024-01-27T00:16:10;3.80;99.90
23721;DHT22;42950;52.134;5.578;2024-01-27T00:18:36;3.90;99.90
23721;DHT22;42950;52.134;5.578;2024-01-27T00:21:03;3.90;99.90
23721;DHT22;42950;52.134;5.578;2024-01-27T00:23:29;3.80;99.90
23721;DHT22;42950;52.134;5.578;2024-01-27T00:25:54;3.80;99.90
23721;DHT22;42950;52.134;5.578;2024-01-27T00:28:20;3.80;99.90
23721;DHT22;42950;52.134;5.578;2024-01-27T00:30:45;3.80;99.90
23721;DHT22;42950;52.134;5.578;2024-01-27T00:33:11;3.80;99.90
23721;DHT22;42950;52.134;5.578;2024-01-27T00:35:36;3.80;99.90
23721;DHT22;42950;52.134;5.578;2024-01-27T00:38:02;3.80;99.90
23721;DHT22;42950;52.134;5.578;2024-01-27T00:40:28;3.80;99.90
23721;DHT22;42950;52.134;5.578;2024-01-27T00:42:53;3.80;99.90
23721;DHT22;42950;52.134;5.578;2024-01-27T00:45:20;3.80;99.90
23721;DHT22;42950;52.134;5.578;2024-01-27T00:47:51;3.80;99.90
23721;DHT22;42950;52.134;5.578;2024-01-27T00:50:16;3.90;99.90
23721;DHT22;42950;52.134;5.578;2024-01-27T00:52:42;3.90;99.90
23721;DHT22;42950;52.134;5.578;2024-01-27T00:55:08;3.90;99.90
23721;DHT22;42950;52.134;5.578;2024-01-27T00:57:36;3.80;99.90
23721;DHT22;42950;52.134;5.578;2024-01-27T01:00:05;3.70;99.90
23721;DHT22;42950;52.134;5.578;2024-01-27T01:02:32;3.70;99.90
23721;DHT22;42950;52.134;5.578;2024-01-27T01:04:57;3.70;99.90
23721;DHT22;42950;52.134;5.578;2024-01-27T01:07:23;3.60;99.90
23721;DHT22;42950;52.134;5.578;2024-01-27T01:09:48;3.60;99.90
23721;DHT22;42950;52.134;5.578;2024-01-27T01:12:14;3.60;99.90
23721;DHT22;42950;52.134;5.578;2024-01-27T01:14:40;3.60;99.90
23721;DHT22;42950;52.134;5.578;2024-01-27T01:17:06;3.60;99.90
23721;DHT22;42950;52.134;5.578;2024-01-27T01:19:32;3.60;99.90
23721;DHT22;42950;52.134;5.578;2024-01-27T01:21:58;3.60;99.90
23721;DHT22;42950;52.134;5.578;2024-01-27T01:24:23;3.50;99.90
23721;DHT22;42950;52.134;5.578;2024-01-27T01:26:49;3.50;99.90
23721;DHT22;42950;52.134;5.578;2024-01-27T01:29:14;3.50;99.90
23721;DHT22;42950;52.134;5.578;2024-01-27T01:31:42;3.50;99.90
23721;DHT22;42950;52.134;5.578;2024-01-27T01:34:08;3.50;99.90
23721;DHT22;42950;52.134;5.578;2024-01-27T01:36:33;3.50;99.90
23721;DHT22;42950;52.134;5.578;2024-01-27T01:38:59;3.50;99.90
23721;DHT22;42950;52.134;5.578;2024-01-27T01:41:25;3.50;99.90
23721;DHT22;42950;52.134;5.578;2024-01-27T01:43:50;3.50;99.90
23721;DHT22;42950;52.134;5.578;2024-01-27T01:46:16;3.50;99.90
23721;DHT22;42950;52.134;5.578;2024-01-27T01:48:42;3.50;99.90
23721;DHT22;42950;52.134;5.578;2024-01-27T01:51:09;3.50;99.90
23721;DHT22;42950;52.134;5.578;2024-01-27T01:53:34;3.50;99.90
23721;DHT22;42950;52.134;5.578;2024-01-27T01:56:01;3.50;99.90
23721;DHT22;42950;52.134;5.578;2024-01-27T01:58:27;3.50;99.90
23721;DHT22;42950;52.134;5.578;2024-01-27T02:01:00;3.40;99.90
23721;DHT22;42950;52.134;5.578;2024-01-27T02:03:25;3.40;99.90
23721;DHT22;42950;52.134;5.578;2024-01-27T02:05:51;3.40;99.90
23721;DHT22;42950;52.134;5.578;2024-01-27T02:08:17;3.40;99.90
23721;DHT22;42950;52.134;5.578;2024-01-27T02:10:42;3.50;99.90
23721;DHT22;42950;52.134;5.578;2024-01-27T02:13:21;3.50;99.90
23721;DHT22;42950;52.134;5.578;2024-01-27T02:15:48;3.50;99.90
23721;DHT22;42950;52.134;5.578;2024-01-27T02:18:14;3.40;99.90
23721;DHT22;42950;52.134;5.578;2024-01-27T02:20:40;3.40;99.90
23721;DHT22;42950;52.134;5.578;2024-01-27T02:23:06;3.40;99.90
23721;DHT22;42950;52.134;5.578;2024-01-27T02:25:32;3.40;99.90
23721;DHT22;42950;52.134;5.578;2024-01-27T02:27:58;3.40;99.90
23721;DHT22;42950;52.134;5.578;2024-01-27T02:30:23;3.40;99.90
23721;DHT22;42950;52.134;5.578;2024-01-27T02:32:49;3.30;99.90
23721;DHT22;42950;52.134;5.578;2024-01-27T02:35:15;3.30;99.90
23721;DHT22;42950;52.134;5.578;2024-01-27T02:37:41;3.30;99.90
23721;DHT22;42950;52.134;5.578;2024-01-27T02:40:08;3.30;99.90
23721;DHT22;42950;52.134;5.578;2024-01-27T02:42:35;3.30;99.90
23721;DHT22;42950;52.134;5.578;2024-01-27T02:45:01;3.30;99.90
23721;DHT22;42950;52.134;5.578;2024-01-27T02:47:26;3.30;99.90
23721;DHT22;42950;52.134;5.578;2024-01-27T02:49:52;3.30;99.90
23721;DHT22;42950;52.134;5.578;2024-01-27T02:52:17;3.20;99.90
23721;DHT22;42950;52.134;5.578;2024-01-27T02:54:43;3.20;99.90
23721;DHT22;42950;52.134;5.578;2024-01-27T02:57:08;3.20;99.90
23721;DHT22;42950;52.134;5.578;2024-01-27T02:59:34;3.30;99.90
23721;DHT22;42950;52.134;5.578;2024-01-27T03:02:00;3.20;99.90
23721;DHT22;42950;52.134;5.578;2024-01-27T03:04:26;3.20;99.90
23721;DHT22;42950;52.134;5.578;2024-01-27T03:06:51;3.20;99.90
23721;DHT22;42950;52.134;5.578;2024-01-27T03:09:17;3.20;99.90
23721;DHT22;42950;52.134;5.578;2024-01-27T03:11:43;3.20;99.90
23721;DHT22;42950;52.134;5.578;2024-01-27T03:14:09;3.10;99.90
23721;DHT22;42950;52.134;5.578;2024-01-27T03:16:35;3.10;99.90
23721;DHT22;42950;52.134;5.578;2024-01-27T03:19:01;3.10;99.90
23721;DHT22;42950;52.134;5.578;2024-01-27T03:21:27;3.10;99.90
23721;DHT22;42950;52.134;5.578;2024-01-27T03:23:53;3.10;99.90
23721;DHT22;42950;52.134;5.578;2024-01-27T03:26:18;3.10;99.90
23721;DHT22;42950;52.134;5.578;2024-01-27T03:28:44;3.00;99.90
23721;DHT22;42950;52.134;5.578;2024-01-27T03:31:10;3.00;99.90
23721;DHT22;42950;52.134;5.578;2024-01-27T03:33:35;3.00;99.90
23721;DHT22;42950;52.134;5.578;2024-01-27T03:36:01;3.00;99.90
23721;DHT22;42950;52.134;5.578;2024-01-27T03:38:26;3.00;99.90
23721;DHT22;42950;52.134;5.578;2024-01-27T03:40:52;3.00;99.90
23721;DHT22;42950;52.134;5.578;2024-01-27T03:43:17;3.10;99.90
23721;DHT22;42950;52.134;5.578;2024-01-27T03:45:43;3.00;99.90
23721;DHT22;42950;52.134;5.578;2024-01-27T03:48:09;3.10;99.90
23721;DHT22;42950;52.134;5.578;2024-01-27T03:50:34;3.10;99.90
23721;DHT22;42950;52.134;5.578;2024-01-27T03:53:00;3.10;99.90
23721;DHT22;42950;52.134;5.578;2024-01-27T03:55:25;3.00;99.90
23721;DHT22;42950;52.134;5.578;2024-01-27T03:57:51;3.00;99.90
23721;DHT22;42950;52.134;5.578;2024-01-27T04:00:16;3.00;99.90
23721;DHT22;42950;52.134;5.578;2024-01-27T04:02:42;3.00;99.90
23721;DHT22;42950;52.134;5.578;2024-01-27T04:05:07;3.00;99.90
23721;DHT22;42950;52.134;5.578;2024-01-27T04:07:33;2.90;99.90
23721;DHT22;42950;52.134;5.578;2024-01-27T04:09:59;2.90;99.90
23721;DHT22;42950;52.134;5.578;2024-01-27T04:12:24;3.00;99.90
23721;DHT22;42950;52.134;5.578;2024-01-27T04:14:50;2.90;99.90
23721;DHT22;42950;52.134;5.578;2024-01-27T04:17:16;2.90;99.90
23721;DHT22;42950;52.134;5.578;2024-01-27T04:19:41;2.80;99.90
23721;DHT22;42950;52.134;5.578;2024-01-27T04:22:07;2.90;99.90
23721;DHT22;42950;52.134;5.578;2024-01-27T04:24:32;2.90;99.90
23721;DHT22;42950;52.134;5.578;2024-01-27T04:26:59;2.90;99.90
23721;DHT22;42950;52.134;5.578;2024-01-27T04:29:25;2.90;99.90
23721;DHT22;42950;52.134;5.578;2024-01-27T04:31:50;2.90;99.90
23721;DHT22;42950;52.134;5.578;2024-01-27T04:34:16;2.80;99.90
23721;DHT22;42950;52.134;5.578;2024-01-27T04:36:41;2.80;99.90
23721;DHT22;42950;52.134;5.578;2024-01-27T04:39:07;2.80;99.90
23721;DHT22;42950;52.134;5.578;2024-01-27T04:41:33;2.70;99.90
23721;DHT22;42950;52.134;5.578;2024-01-27T04:43:58;2.70;99.90
23721;DHT22;42950;52.134;5.578;2024-01-27T04:46:24;2.70;99.90
23721;DHT22;42950;52.134;5.578;2024-01-27T04:48:50;2.70;99.90
23721;DHT22;42950;52.134;5.578;2024-01-27T04:51:15;2.70;99.90
23721;DHT22;42950;52.134;5.578;2024-01-27T04:53:41;2.70;99.90
23721;DHT22;42950;52.134;5.578;2024-01-27T04:56:06;2.70;99.90
23721;DHT22;42950;52.134;5.578;2024-01-27T04:58:35;2.60;99.90
23721;DHT22;42950;52.134;5.578;2024-01-27T05:01:01;2.60;99.90
23721;DHT22;42950;52.134;5.578;2024-01-27T05:03:27;2.60;99.90
23721;DHT22;42950;52.134;5.578;2024-01-27T05:05:52;2.60;99.90
23721;DHT22;42950;52.134;5.578;2024-01-27T05:08:18;2.50;99.90
23721;DHT22;42950;52.134;5.578;2024-01-27T05:10:44;2.60;99.90
23721;DHT22;42950;52.134;5.578;2024-01-27T05:13:10;2.50;99.90
23721;DHT22;42950;52.134;5.578;2024-01-27T05:15:36;2.50;99.90
23721;DHT22;42950;52.134;5.578;2024-01-27T05:18:01;2.50;99.90
23721;DHT22;42950;52.134;5.578;2024-01-27T05:20:27;2.50;99.90
23721;DHT22;42950;52.134;5.578;2024-01-27T05:22:52;2.50;99.90
23721;DHT22;42950;52.134;5.578;2024-01-27T05:25:18;2.50;99.90
23721;DHT22;42950;52.134;5.578;2024-01-27T05:27:44;2.50;99.90
23721;DHT22;42950;52.134;5.578;2024-01-27T05:30:10;2.50;99.90
23721;DHT22;42950;52.134;5.578;2024-01-27T05:32:35;2.40;99.90
23721;DHT22;42950;52.134;5.578;2024-01-27T05:35:01;2.40;99.90
23721;DHT22;42950;52.134;5.578;2024-01-27T05:37:26;2.40;99.90
23721;DHT22;42950;52.134;5.578;2024-01-27T05:39:52;2.50;99.90
23721;DHT22;42950;52.134;5.578;2024-01-27T05:42:18;2.40;99.90
23721;DHT22;42950;52.134;5.578;2024-01-27T05:44:44;2.40;99.90
23721;DHT22;42950;52.134;5.578;2024-01-27T05:47:10;2.40;99.90
23721;DHT22;42950;52.134;5.578;2024-01-27T05:49:36;2.40;99.90
23721;DHT22;42950;52.134;5.578;2024-01-27T05:52:02;2.40;99.90
23721;DHT22;42950;52.134;5.578;2024-01-27T05:54:28;2.40;99.90
23721;DHT22;42950;52.134;5.578;2024-01-27T05:56:53;2.40;99.90
23721;DHT22;42950;52.134;5.578;2024-01-27T05:59:19;2.40;99.90
23721;DHT22;42950;52.134;5.578;2024-01-27T06:01:45;2.40;99.90
23721;DHT22;42950;52.134;5.578;2024-01-27T06:04:11;2.30;99.90
23721;DHT22;42950;52.134;5.578;2024-01-27T06:06:39;2.30;99.90
23721;DHT22;42950;52.134;5.578;2024-01-27T06:09:05;2.40;99.90
23721;DHT22;42950;52.134;5.578;2024-01-27T06:11:31;2.40;99.90
23721;DHT22;42950;52.134;5.578;2024-01-27T06:13:56;2.40;99.90
23721;DHT22;42950;52.134;5.578;2024-01-27T06:16:23;2.40;99.90
23721;DHT22;42950;52.134;5.578;2024-01-27T06:18:49;2.40;99.90
23721;DHT22;42950;52.134;5.578;2024-01-27T06:21:15;2.40;99.90
23721;DHT22;42950;52.134;5.578;2024-01-27T06:23:40;2.40;99.90
23721;DHT22;42950;52.134;5.578;2024-01-27T06:26:07;2.40;99.90
23721;DHT22;42950;52.134;5.578;2024-01-27T06:28:32;2.40;99.90
23721;DHT22;42950;52.134;5.578;2024-01-27T06:31:02;2.40;99.90
23721;DHT22;42950;52.134;5.578;2024-01-27T06:33:28;2.40;99.90
23721;DHT22;42950;52.134;5.578;2024-01-27T06:35:54;2.30;99.90
23721;DHT22;42950;52.134;5.578;2024-01-27T06:38:19;2.40;99.90
23721;DHT22;42950;52.134;5.578;2024-01-27T06:40:45;2.40;99.90
23721;DHT22;42950;52.134;5.578;2024-01-27T06:43:14;2.40;99.90
23721;DHT22;42950;52.134;5.578;2024-01-27T06:45:40;2.30;99.90
23721;DHT22;42950;52.134;5.578;2024-01-27T06:48:06;2.30;99.90
23721;DHT22;42950;52.134;5.578;2024-01-27T06:50:32;2.30;99.90
23721;DHT22;42950;52.134;5.578;2024-01-27T06:52:58;2.30;99.90
23721;DHT22;42950;52.134;5.578;2024-01-27T06:55:24;2.30;99.90
23721;DHT22;42950;52.134;5.578;2024-01-27T06:57:50;2.40;99.90
23721;DHT22;42950;52.134;5.578;2024-01-27T07:00:16;2.40;99.90
23721;DHT22;42950;52.134;5.578;2024-01-27T07:02:42;2.40;99.90
23721;DHT22;42950;52.134;5.578;2024-01-27T07:05:08;2.40;99.90
23721;DHT22;42950;52.134;5.578;2024-01-27T07:07:34;2.40;99.90
23721;DHT22;42950;52.134;5.578;2024-01-27T07:10:00;2.30;99.90
23721;DHT22;42950;52.134;5.578;2024-01-27T07:12:26;2.40;99.90
23721;DHT22;42950;52.134;5.578;2024-01-27T07:14:51;2.30;99.90
23721;DHT22;42950;52.134;5.578;2024-01-27T07:17:18;2.30;99.90
23721;DHT22;42950;52.134;5.578;2024-01-27T07:19:43;2.20;99.90
23721;DHT22;42950;52.134;5.578;2024-01-27T07:22:09;2.20;99.90
23721;DHT22;42950;52.134;5.578;2024-01-27T07:24:35;2.20;99.90
23721;DHT22;42950;52.134;5.578;2024-01-27T07:27:00;2.20;99.90
23721;DHT22;42950;52.134;5.578;2024-01-27T07:29:27;2.20;99.90
23721;DHT22;42950;52.134;5.578;2024-01-27T07:31:53;2.10;99.90
23721;DHT22;42950;52.134;5.578;2024-01-27T07:34:18;2.10;99.90
23721;DHT22;42950;52.134;5.578;2024-01-27T07:36:44;2.10;99.90
23721;DHT22;42950;52.134;5.578;2024-01-27T07:39:11;2.10;99.90
23721;DHT22;42950;52.134;5.578;2024-01-27T07:41:36;2.10;99.90
23721;DHT22;42950;52.134;5.578;2024-01-27T07:44:09;2.00;99.90
23721;DHT22;42950;52.134;5.578;2024-01-27T07:46:38;2.00;99.90
23721;DHT22;42950;52.134;5.578;2024-01-27T07:49:05;2.00;99.90
23721;DHT22;42950;52.134;5.578;2024-01-27T07:51:31;2.00;99.90
23721;DHT22;42950;52.134;5.578;2024-01-27T07:53:57;2.10;99.90
23721;DHT22;42950;52.134;5.578;2024-01-27T07:56:23;2.00;99.90
23721;DHT22;42950;52.134;5.578;2024-01-27T07:58:49;2.10;99.90
23721;DHT22;42950;52.134;5.578;2024-01-27T08:01:15;2.00;99.90
23721;DHT22;42950;52.134;5.578;2024-01-27T08:03:41;2.10;99.90
23721;DHT22;42950;52.134;5.578;2024-01-27T08:06:10;2.10;99.90
23721;DHT22;42950;52.134;5.578;2024-01-27T08:08:36;2.20;99.90
23721;DHT22;42950;52.134;5.578;2024-01-27T08:11:02;2.20;99.90
23721;DHT22;42950;52.134;5.578;2024-01-27T08:13:28;2.30;99.90
23721;DHT22;42950;52.134;5.578;2024-01-27T08:15:54;2.30;99.90
23721;DHT22;42950;52.134;5.578;2024-01-27T08:18:19;2.40;99.90
23721;DHT22;42950;52.134;5.578;2024-01-27T08:20:45;2.40;99.90
23721;DHT22;42950;52.134;5.578;2024-01-27T08:23:11;2.50;99.90
23721;DHT22;42950;52.134;5.578;2024-01-27T08:25:36;2.50;99.90
23721;DHT22;42950;52.134;5.578;2024-01-27T08:28:02;2.50;99.90
23721;DHT22;42950;52.134;5.578;2024-01-27T08:30:27;2.60;99.90
23721;DHT22;42950;52.134;5.578;2024-01-27T08:32:53;2.70;99.90
23721;DHT22;42950;52.134;5.578;2024-01-27T08:35:18;2.80;99.90
23721;DHT22;42950;52.134;5.578;2024-01-27T08:37:44;2.90;99.90
23721;DHT22;42950;52.134;5.578;2024-01-27T08:40:09;2.90;99.90
23721;DHT22;42950;52.134;5.578;2024-01-27T08:42:35;3.00;99.90
23721;DHT22;42950;52.134;5.578;2024-01-27T08:45:00;3.00;99.90
23721;DHT22;42950;52.134;5.578;2024-01-27T08:47:26;3.10;99.90
23721;DHT22;42950;52.134;5.578;2024-01-27T08:49:51;3.10;99.90
23721;DHT22;42950;52.134;5.578;2024-01-27T08:52:17;3.10;99.90
23721;DHT22;42950;52.134;5.578;2024-01-27T08:54:43;3.10;99.90
23721;DHT22;42950;52.134;5.578;2024-01-27T08:57:08;3.20;99.90
23721;DHT22;42950;52.134;5.578;2024-01-27T08:59:34;3.30;99.90
23721;DHT22;42950;52.134;5.578;2024-01-27T09:02:01;3.30;99.90
23721;DHT22;42950;52.134;5.578;2024-01-27T09:04:26;3.50;99.90
23721;DHT22;42950;52.134;5.578;2024-01-27T09:06:52;3.60;99.90
23721;DHT22;42950;52.134;5.578;2024-01-27T09:09:17;3.70;99.90
23721;DHT22;42950;52.134;5.578;2024-01-27T09:11:43;3.70;99.90
23721;DHT22;42950;52.134;5.578;2024-01-27T09:14:10;3.70;99.90
23721;DHT22;42950;52.134;5.578;2024-01-27T09:16:35;3.80;99.90
23721;DHT22;42950;52.134;5.578;2024-01-27T09:19:01;3.80;99.90
23721;DHT22;42950;52.134;5.578;2024-01-27T09:21:27;3.90;99.90
23721;DHT22;42950;52.134;5.578;2024-01-27T09:23:55;3.90;99.90
23721;DHT22;42950;52.134;5.578;2024-01-27T09:26:20;3.90;99.90
23721;DHT22;42950;52.134;5.578;2024-01-27T09:28:48;4.00;99.90
23721;DHT22;42950;52.134;5.578;2024-01-27T09:31:23;4.00;99.90
23721;DHT22;42950;52.134;5.578;2024-01-27T09:33:52;4.00;99.90
23721;DHT22;42950;52.134;5.578;2024-01-27T09:36:19;4.10;99.90
23721;DHT22;42950;52.134;5.578;2024-01-27T09:38:45;4.10;99.90
23721;DHT22;42950;52.134;5.578;2024-01-27T09:41:13;4.20;99.90
23721;DHT22;42950;52.134;5.578;2024-01-27T09:43:43;4.30;99.90
23721;DHT22;42950;52.134;5.578;2024-01-27T09:46:13;4.40;99.90
23721;DHT22;42950;52.134;5.578;2024-01-27T09:48:39;4.50;99.90
23721;DHT22;42950;52.134;5.578;2024-01-27T09:51:06;4.60;99.90
23721;DHT22;42950;52.134;5.578;2024-01-27T09:53:32;4.60;99.90
23721;DHT22;42950;52.134;5.578;2024-01-27T09:55:58;4.70;99.90
23721;DHT22;42950;52.134;5.578;2024-01-27T09:58:28;4.80;99.90
23721;DHT22;42950;52.134;5.578;2024-01-27T10:00:57;4.90;99.90
23721;DHT22;42950;52.134;5.578;2024-01-27T10:03:27;4.90;99.90
23721;DHT22;42950;52.134;5.578;2024-01-27T10:05:57;5.00;99.90
23721;DHT22;42950;52.134;5.578;2024-01-27T10:08:24;5.10;99.90
23721;DHT22;42950;52.134;5.578;2024-01-27T10:10:54;5.10;99.90
23721;DHT22;42950;52.134;5.578;2024-01-27T10:13:21;5.20;99.90
23721;DHT22;42950;52.134;5.578;2024-01-27T10:16:03;5.20;99.90
23721;DHT22;42950;52.134;5.578;2024-01-27T10:18:29;5.30;99.90
23721;DHT22;42950;52.134;5.578;2024-01-27T10:20:55;5.40;99.90
23721;DHT22;42950;52.134;5.578;2024-01-27T10:23:20;5.50;99.90
23721;DHT22;42950;52.134;5.578;2024-01-27T10:25:46;5.50;99.90
23721;DHT22;42950;52.134;5.578;2024-01-27T10:28:12;5.60;99.90
23721;DHT22;42950;52.134;5.578;2024-01-27T10:30:37;5.60;99.90
23721;DHT22;42950;52.134;5.578;2024-01-27T10:33:03;5.70;99.90
23721;DHT22;42950;52.134;5.578;2024-01-27T10:35:29;5.70;99.90
23721;DHT22;42950;52.134;5.578;2024-01-27T10:37:55;5.80;99.90
23721;DHT22;42950;52.134;5.578;2024-01-27T10:40:22;5.90;99.90
23721;DHT22;42950;52.134;5.578;2024-01-27T10:43:08;5.90;99.90
23721;DHT22;42950;52.134;5.578;2024-01-27T10:45:37;6.10;99.90
23721;DHT22;42950;52.134;5.578;2024-01-27T10:48:05;6.10;99.90
23721;DHT22;42950;52.134;5.578;2024-01-27T10:50:40;6.20;99.90
23721;DHT22;42950;52.134;5.578;2024-01-27T10:53:15;6.20;99.90
23721;DHT22;42950;52.134;5.578;2024-01-27T10:55:44;6.20;99.90
23721;DHT22;42950;52.134;5.578;2024-01-27T10:58:12;6.30;99.90
23721;DHT22;42950;52.134;5.578;2024-01-27T11:00:38;6.30;99.90
23721;DHT22;42950;52.134;5.578;2024-01-27T11:03:06;6.40;99.90
23721;DHT22;42950;52.134;5.578;2024-01-27T11:05:35;6.50;99.90
23721;DHT22;42950;52.134;5.578;2024-01-27T11:08:01;6.50;99.90
23721;DHT22;42950;52.134;5.578;2024-01-27T11:10:27;6.60;99.90
23721;DHT22;42950;52.134;5.578;2024-01-27T11:13:01;6.60;99.90
23721;DHT22;42950;52.134;5.578;2024-01-27T11:15:26;6.80;99.90
23721;DHT22;42950;52.134;5.578;2024-01-27T11:17:57;6.80;99.90
23721;DHT22;42950;52.134;5.578;2024-01-27T11:20:24;6.90;99.90
23721;DHT22;42950;52.134;5.578;2024-01-27T11:22:49;6.90;99.90
23721;DHT22;42950;52.134;5.578;2024-01-27T11:25:18;6.90;99.90
23721;DHT22;42950;52.134;5.578;2024-01-27T11:27:45;7.00;99.90
23721;DHT22;42950;52.134;5.578;2024-01-27T11:30:31;7.00;99.90
23721;DHT22;42950;52.134;5.578;2024-01-27T11:33:01;7.10;99.90
23721;DHT22;42950;52.134;5.578;2024-01-27T11:35:28;7.20;99.90
23721;DHT22;42950;52.134;5.578;2024-01-27T11:37:54;7.20;99.90
23721;DHT22;42950;52.134;5.578;2024-01-27T11:40:20;7.40;99.90
23721;DHT22;42950;52.134;5.578;2024-01-27T11:42:59;7.50;99.90
23721;DHT22;42950;52.134;5.578;2024-01-27T11:45:26;7.60;99.90
23721;DHT22;42950;52.134;5.578;2024-01-27T11:47:53;7.60;99.90
23721;DHT22;42950;52.134;5.578;2024-01-27T11:50:20;7.70;99.90
23721;DHT22;42950;52.134;5.578;2024-01-27T11:52:46;7.70;99.90
23721;DHT22;42950;52.134;5.578;2024-01-27T11:55:12;7.70;99.90
23721;DHT22;42950;52.134;5.578;2024-01-27T11:57:40;7.70;99.90
23721;DHT22;42950;52.134;5.578;2024-01-27T12:00:06;7.70;99.90
23721;DHT22;42950;52.134;5.578;2024-01-27T12:02:32;7.60;99.90
23721;DHT22;42950;52.134;5.578;2024-01-27T12:04:58;7.60;99.90
23721;DHT22;42950;52.134;5.578;2024-01-27T12:07:24;7.70;99.90
23721;DHT22;42950;52.134;5.578;2024-01-27T12:09:51;7.80;99.90
23721;DHT22;42950;52.134;5.578;2024-01-27T12:12:17;7.80;99.90
23721;DHT22;42950;52.134;5.578;2024-01-27T12:14:49;7.90;99.90
23721;DHT22;42950;52.134;5.578;2024-01-27T12:17:16;8.00;99.90
23721;DHT22;42950;52.134;5.578;2024-01-27T12:19:52;8.00;99.90
23721;DHT22;42950;52.134;5.578;2024-01-27T12:22:24;8.00;99.90
23721;DHT22;42950;52.134;5.578;2024-01-27T12:24:51;8.00;99.90
23721;DHT22;42950;52.134;5.578;2024-01-27T12:27:17;8.00;99.90
23721;DHT22;42950;52.134;5.578;2024-01-27T12:29:43;8.00;99.90
23721;DHT22;42950;52.134;5.578;2024-01-27T12:32:08;8.00;99.90
23721;DHT22;42950;52.134;5.578;2024-01-27T12:34:40;8.10;99.90
23721;DHT22;42950;52.134;5.578;2024-01-27T12:37:08;8.20;99.90
23721;DHT22;42950;52.134;5.578;2024-01-27T12:39:36;8.20;99.90
23721;DHT22;42950;52.134;5.578;2024-01-27T12:42:01;8.20;99.90
23721;DHT22;42950;52.134;5.578;2024-01-27T12:44:27;8.30;99.90
23721;DHT22;42950;52.134;5.578;2024-01-27T12:46:52;8.30;99.90
23721;DHT22;42950;52.134;5.578;2024-01-27T12:49:18;8.40;99.90
23721;DHT22;42950;52.134;5.578;2024-01-27T12:51:44;8.40;99.90
23721;DHT22;42950;52.134;5.578;2024-01-27T12:54:11;8.30;99.90
23721;DHT22;42950;52.134;5.578;2024-01-27T12:56:36;8.30;99.90
23721;DHT22;42950;52.134;5.578;2024-01-27T12:59:02;8.30;99.90
23721;DHT22;42950;52.134;5.578;2024-01-27T13:01:28;8.40;99.90
23721;DHT22;42950;52.134;5.578;2024-01-27T13:03:53;8.40;99.90
23721;DHT22;42950;52.134;5.578;2024-01-27T13:06:19;8.40;99.90
23721;DHT22;42950;52.134;5.578;2024-01-27T13:08:46;8.40;99.90
23721;DHT22;42950;52.134;5.578;2024-01-27T13:11:11;8.50;99.90
23721;DHT22;42950;52.134;5.578;2024-01-27T13:13:39;8.50;99.90
23721;DHT22;42950;52.134;5.578;2024-01-27T13:16:05;8.60;99.90
23721;DHT22;42950;52.134;5.578;2024-01-27T13:18:31;8.50;99.90
23721;DHT22;42950;52.134;5.578;2024-01-27T13:20:57;8.50;99.90
23721;DHT22;42950;52.134;5.578;2024-01-27T13:23:23;8.60;99.90
23721;DHT22;42950;52.134;5.578;2024-01-27T13:25:48;8.50;99.90
23721;DHT22;42950;52.134;5.578;2024-01-27T13:28:14;8.50;99.90
23721;DHT22;42950;52.134;5.578;2024-01-27T13:30:40;8.50;99.90
23721;DHT22;42950;52.134;5.578;2024-01-27T13:33:05;8.40;99.90
23721;DHT22;42950;52.134;5.578;2024-01-27T13:35:31;8.40;99.90
23721;DHT22;42950;52.134;5.578;2024-01-27T13:37:56;8.40;99.90
23721;DHT22;42950;52.134;5.578;2024-01-27T13:40:22;8.40;99.90
23721;DHT22;42950;52.134;5.578;2024-01-27T13:42:48;8.40;99.90
23721;DHT22;42950;52.134;5.578;2024-01-27T13:45:14;8.40;99.90
23721;DHT22;42950;52.134;5.578;2024-01-27T13:47:40;8.30;99.90
23721;DHT22;42950;52.134;5.578;2024-01-27T13:50:06;8.40;99.90
23721;DHT22;42950;52.134;5.578;2024-01-27T13:52:32;8.30;99.90
23721;DHT22;42950;52.134;5.578;2024-01-27T13:54:58;8.30;99.90
23721;DHT22;42950;52.134;5.578;2024-01-27T13:57:23;8.30;99.90
23721;DHT22;42950;52.134;5.578;2024-01-27T13:59:49;8.30;99.90
23721;DHT22;42950;52.134;5.578;2024-01-27T14:02:15;8.30;99.90
23721;DHT22;42950;52.134;5.578;2024-01-27T14:04:40;8.40;99.90
23721;DHT22;42950;52.134;5.578;2024-01-27T14:07:06;8.40;99.90
23721;DHT22;42950;52.134;5.578;2024-01-27T14:09:33;8.30;99.90
23721;DHT22;42950;52.134;5.578;2024-01-27T14:11:59;8.20;99.90
23721;DHT22;42950;52.134;5.578;2024-01-27T14:14:26;8.20;99.90
23721;DHT22;42950;52.134;5.578;2024-01-27T14:16:52;8.20;99.90
23721;DHT22;42950;52.134;5.578;2024-01-27T14:19:17;8.20;99.90
23721;DHT22;42950;52.134;5.578;2024-01-27T14:21:43;8.30;99.90
23721;DHT22;42950;52.134;5.578;2024-01-27T14:24:08;8.30;99.90
23721;DHT22;42950;52.134;5.578;2024-01-27T14:26:35;8.30;99.90
23721;DHT22;42950;52.134;5.578;2024-01-27T14:29:02;8.20;99.90
23721;DHT22;42950;52.134;5.578;2024-01-27T14:31:28;8.20;99.90
23721;DHT22;42950;52.134;5.578;2024-01-27T14:33:56;8.30;99.90
23721;DHT22;42950;52.134;5.578;2024-01-27T14:36:21;8.20;99.90
23721;DHT22;42950;52.134;5.578;2024-01-27T14:38:49;8.20;99.90
23721;DHT22;42950;52.134;5.578;2024-01-27T14:41:14;8.20;99.90
23721;DHT22;42950;52.134;5.578;2024-01-27T14:43:40;8.20;99.90
23721;DHT22;42950;52.134;5.578;2024-01-27T14:46:05;8.20;99.90
23721;DHT22;42950;52.134;5.578;2024-01-27T14:48:31;8.30;99.90
23721;DHT22;42950;52.134;5.578;2024-01-27T14:50:57;8.30;99.90
23721;DHT22;42950;52.134;5.578;2024-01-27T14:53:27;8.30;99.90
23721;DHT22;42950;52.134;5.578;2024-01-27T14:55:54;8.30;99.90
23721;DHT22;42950;52.134;5.578;2024-01-27T14:58:21;8.20;99.90
23721;DHT22;42950;52.134;5.578;2024-01-27T15:00:47;8.10;99.90
23721;DHT22;42950;52.134;5.578;2024-01-27T15:03:27;8.10;99.90
23721;DHT22;42950;52.134;5.578;2024-01-27T15:05:53;8.10;99.90
23721;DHT22;42950;52.134;5.578;2024-01-27T15:08:20;8.00;99.90
23721;DHT22;42950;52.134;5.578;2024-01-27T15:10:46;8.00;99.90
23721;DHT22;42950;52.134;5.578;2024-01-27T15:13:13;7.90;99.90
23721;DHT22;42950;52.134;5.578;2024-01-27T15:15:39;7.80;99.90
23721;DHT22;42950;52.134;5.578;2024-01-27T15:18:06;7.80;99.90
23721;DHT22;42950;52.134;5.578;2024-01-27T15:20:32;7.80;99.90
23721;DHT22;42950;52.134;5.578;2024-01-27T15:22:58;7.80;99.90
23721;DHT22;42950;52.134;5.578;2024-01-27T15:25:23;7.70;99.90
23721;DHT22;42950;52.134;5.578;2024-01-27T15:27:50;7.60;99.90
23721;DHT22;42950;52.134;5.578;2024-01-27T15:30:16;7.60;99.90
23721;DHT22;42950;52.134;5.578;2024-01-27T15:32:42;7.60;99.90
23721;DHT22;42950;52.134;5.578;2024-01-27T15:35:08;7.60;99.90
23721;DHT22;42950;52.134;5.578;2024-01-27T15:37:34;7.60;99.90
23721;DHT22;42950;52.134;5.578;2024-01-27T15:39:59;7.60;99.90